createdAt,value
2022-10-19T00:01:29.652Z,1.40
2022-10-19T00:03:33.918Z,1.52
2022-10-19T00:05:32.164Z,1.25
2022-10-19T00:07:30.506Z,0.77
2022-10-19T00:09:29.226Z,0.65
2022-10-19T00:11:30.903Z,1.20
2022-10-19T00:13:29.017Z,1.25
2022-10-19T00:15:28.754Z,0.45
2022-10-19T00:17:27.004Z,1.42
2022-10-19T00:19:27.408Z,0.50
2022-10-19T00:21:26.124Z,0.93
2022-10-19T00:23:24.178Z,1.30
2022-10-19T00:25:22.542Z,0.88
2022-10-19T00:27:20.675Z,0.80
2022-10-19T00:29:19.475Z,1.77
2022-10-19T00:31:19.306Z,1.00
2022-10-19T00:33:22.539Z,0.93
2022-10-19T00:35:20.877Z,1.08
2022-10-19T00:37:19.280Z,1.27
2022-10-19T00:39:19.007Z,1.55
2022-10-19T00:41:18.671Z,0.73
2022-10-19T00:43:18.290Z,1.52
2022-10-19T00:45:18.388Z,0.70
2022-10-19T00:47:20.291Z,0.98
2022-10-19T00:49:23.892Z,0.85
2022-10-19T00:51:23.639Z,1.67
2022-10-19T00:53:22.691Z,1.05
2022-10-19T00:55:21.013Z,0.82
2022-10-19T00:57:18.858Z,0.77
2022-10-19T00:59:21.453Z,0.85
2022-10-19T01:01:23.776Z,1.05
2022-10-19T01:03:23.537Z,1.02
2022-10-19T01:05:22.109Z,0.47
2022-10-19T01:07:21.199Z,0.63
2022-10-19T01:09:19.577Z,0.80
2022-10-19T01:11:32.184Z,1.15
2022-10-19T01:13:43.257Z,1.00
2022-10-19T01:15:49.136Z,0.70
2022-10-19T01:17:59.105Z,0.65
2022-10-19T01:20:32.921Z,0.13
2022-10-19T01:22:49.466Z,1.40
2022-10-19T01:24:58.823Z,0.50
2022-10-19T01:27:20.353Z,0.93
2022-10-19T01:29:26.371Z,0.75
2022-10-19T01:31:33.078Z,0.28
2022-10-19T01:33:41.342Z,0.75
2022-10-19T01:35:46.874Z,0.47
2022-10-19T01:37:49.606Z,0.47
2022-10-19T01:39:54.899Z,0.82
2022-10-19T01:42:02.310Z,0.28
2022-10-19T01:44:09.337Z,0.43
2022-10-19T01:46:12.857Z,1.05
2022-10-19T01:48:17.117Z,1.20
2022-10-19T01:50:20.277Z,0.65
2022-10-19T01:52:21.373Z,0.40
2022-10-19T01:54:23.408Z,0.85
2022-10-19T01:56:25.789Z,0.30
2022-10-19T01:58:28.324Z,0.30
2022-10-19T02:00:28.144Z,0.60
2022-10-19T02:02:28.747Z,0.98
2022-10-19T02:04:28.986Z,0.70
2022-10-19T02:06:27.479Z,1.00
2022-10-19T02:08:30.227Z,0.40
2022-10-19T02:10:30.493Z,0.17
2022-10-19T02:12:32.217Z,0.13
2022-10-19T02:14:33.953Z,0.57
2022-10-19T02:16:36.260Z,0.30
2022-10-19T02:18:38.700Z,1.10
2022-10-19T02:20:38.757Z,0.22
2022-10-19T02:22:37.439Z,0.80
2022-10-19T02:24:35.649Z,0.77
2022-10-19T02:26:34.432Z,0.82
2022-10-19T02:28:33.229Z,0.95
2022-10-19T02:30:31.634Z,0.47
2022-10-19T02:32:30.078Z,1.95
2022-10-19T02:34:28.654Z,0.50
2022-10-19T02:36:28.314Z,1.27
2022-10-19T02:38:27.224Z,0.43
2022-10-19T02:40:26.294Z,0.30
2022-10-19T02:42:33.721Z,0.45
2022-10-19T02:44:38.248Z,1.13
2022-10-19T02:48:43.953Z,0.85
2022-10-19T02:50:45.390Z,0.38
2022-10-19T02:52:45.097Z,0.55
2022-10-19T02:54:45.681Z,0.25
2022-10-19T02:56:43.697Z,0.57
2022-10-19T02:58:41.864Z,0.85
2022-10-19T03:00:40.276Z,1.30
2022-10-19T03:02:38.726Z,1.00
2022-10-19T03:04:37.271Z,0.47
2022-10-19T03:06:35.736Z,0.50
2022-10-19T03:08:35.498Z,0.77
2022-10-19T03:10:33.782Z,0.63
2022-10-19T03:12:32.078Z,0.77
2022-10-19T03:14:30.434Z,1.20
2022-10-19T03:16:28.705Z,0.50
2022-10-19T03:18:26.891Z,1.50
2022-10-19T03:20:25.315Z,0.35
2022-10-19T03:22:23.672Z,0.93
2022-10-19T03:24:23.521Z,0.98
2022-10-19T03:26:21.848Z,1.27
2022-10-19T03:28:20.033Z,0.68
2022-10-19T03:30:18.575Z,0.45
2022-10-19T03:32:16.871Z,1.08
2022-10-19T03:34:15.020Z,2.03
2022-10-19T03:36:23.292Z,1.63
2022-10-19T03:38:21.491Z,1.63
2022-10-19T03:40:21.107Z,0.85
2022-10-19T03:42:19.374Z,0.93
2022-10-19T03:44:17.625Z,0.40
2022-10-19T03:46:16.090Z,0.80
2022-10-19T03:48:14.351Z,0.55
2022-10-19T03:50:14.318Z,0.20
2022-10-19T03:52:12.446Z,1.38
2022-10-19T03:54:14.904Z,1.08
2022-10-19T03:56:17.385Z,0.57
2022-10-19T03:58:15.579Z,0.88
2022-10-19T04:00:15.067Z,1.75
2022-10-19T04:02:13.205Z,1.33
2022-10-19T04:04:13.168Z,0.65
2022-10-19T04:06:16.963Z,1.27
2022-10-19T04:08:18.008Z,0.80
2022-10-19T04:10:16.375Z,0.77
2022-10-19T04:12:15.980Z,0.70
2022-10-19T04:14:22.972Z,1.33
2022-10-19T04:16:31.941Z,1.70
2022-10-19T04:18:30.105Z,0.70
2022-10-19T04:20:28.461Z,0.90
2022-10-19T04:22:26.731Z,1.15
2022-10-19T04:24:25.431Z,1.17
2022-10-19T04:26:23.598Z,1.30
2022-10-19T04:28:23.171Z,0.77
2022-10-19T04:30:21.628Z,1.15
2022-10-19T04:32:19.915Z,1.50
2022-10-19T04:34:19.026Z,1.63
2022-10-19T04:36:17.478Z,1.98
2022-10-19T04:38:18.247Z,2.05
2022-10-19T04:40:16.721Z,1.92
2022-10-19T04:42:14.923Z,1.58
2022-10-19T04:44:15.653Z,1.17
2022-10-19T04:46:16.078Z,1.13
2022-10-19T04:48:15.148Z,1.35
2022-10-19T04:50:13.721Z,10.45
2022-10-19T04:52:11.823Z,24.15
2022-10-19T04:54:10.123Z,8.98
2022-10-19T04:56:10.469Z,5.95
2022-10-19T04:58:08.894Z,3.13
2022-10-19T05:00:10.118Z,1.52
2022-10-19T05:02:08.437Z,1.63
2022-10-19T05:04:06.666Z,0.43
2022-10-19T05:06:05.432Z,2.13
2022-10-19T05:08:03.685Z,0.20
2022-10-19T05:10:01.930Z,1.23
2022-10-19T05:12:00.236Z,0.57
2022-10-19T05:14:01.308Z,1.95
2022-10-19T05:16:02.827Z,2.60
2022-10-19T05:18:01.225Z,1.60
2022-10-19T05:19:59.491Z,1.20
2022-10-19T05:21:59.990Z,0.95
2022-10-19T05:23:59.037Z,1.23
2022-10-19T05:26:02.171Z,1.45
2022-10-19T05:28:00.395Z,1.25
2022-10-19T05:29:58.812Z,1.33
2022-10-19T05:32:00.337Z,1.45
2022-10-19T05:33:58.830Z,1.05
2022-10-19T05:35:57.173Z,3.08
2022-10-19T05:37:55.996Z,1.10
2022-10-19T05:39:55.790Z,1.77
2022-10-19T05:41:53.883Z,1.35
2022-10-19T05:43:54.842Z,1.80
2022-10-19T05:45:53.001Z,1.13
2022-10-19T05:47:52.643Z,1.80
2022-10-19T05:49:50.934Z,1.75
2022-10-19T05:51:49.326Z,1.15
2022-10-19T05:53:47.981Z,0.95
2022-10-19T05:55:46.093Z,4.18
2022-10-19T05:57:44.432Z,2.85
2022-10-19T05:59:42.762Z,2.83
2022-10-19T06:01:41.095Z,1.48
2022-10-19T06:03:41.013Z,1.45
2022-10-19T06:05:39.793Z,1.63
2022-10-19T06:07:37.950Z,0.82
2022-10-19T06:09:37.308Z,1.52
2022-10-19T06:11:39.098Z,3.20
2022-10-19T06:13:38.041Z,2.75
2022-10-19T06:15:37.182Z,5.28
2022-10-19T06:17:35.815Z,3.92
2022-10-19T06:19:35.951Z,4.50
2022-10-19T06:21:35.440Z,5.95
2022-10-19T06:23:34.178Z,3.50
2022-10-19T06:25:32.800Z,2.67
2022-10-19T06:27:33.199Z,2.00
2022-10-19T06:29:31.904Z,1.00
2022-10-19T06:31:30.788Z,1.48
2022-10-19T06:33:30.061Z,3.13
2022-10-19T06:35:29.562Z,0.95
2022-10-19T06:37:27.820Z,1.25
2022-10-19T06:39:26.060Z,2.38
2022-10-19T06:41:24.505Z,1.02
2022-10-19T06:43:22.639Z,2.47
2022-10-19T06:45:20.986Z,1.90
2022-10-19T06:47:19.171Z,1.10
2022-10-19T06:49:17.503Z,2.38
2022-10-19T06:51:17.260Z,1.38
2022-10-19T06:53:16.126Z,1.73
2022-10-19T06:55:14.326Z,2.38
2022-10-19T06:57:12.735Z,1.67
2022-10-19T06:59:13.507Z,1.98
2022-10-19T07:01:14.222Z,1.70
2022-10-19T07:03:12.598Z,2.53
2022-10-19T07:05:11.284Z,1.05
2022-10-19T07:07:11.183Z,2.40
2022-10-19T07:09:09.503Z,2.63
2022-10-19T07:11:10.692Z,9.80
2022-10-19T07:15:12.117Z,1.13
2022-10-19T07:17:12.923Z,1.77
2022-10-19T07:19:11.873Z,1.50
2022-10-19T07:21:11.749Z,1.55
2022-10-19T07:23:11.412Z,2.15
2022-10-19T07:25:10.401Z,1.65
2022-10-19T07:27:08.779Z,1.75
2022-10-19T07:29:06.979Z,1.52
2022-10-19T07:31:10.136Z,2.20
2022-10-19T07:33:08.190Z,2.35
2022-10-19T07:35:07.655Z,1.27
2022-10-19T07:37:05.911Z,1.30
2022-10-19T07:39:07.919Z,1.23
2022-10-19T07:41:09.251Z,1.88
2022-10-19T07:43:07.477Z,1.27
2022-10-19T07:45:06.541Z,1.65
2022-10-19T07:47:06.300Z,1.45
2022-10-19T07:49:07.086Z,0.73
2022-10-19T07:51:09.680Z,1.40
2022-10-19T07:53:10.636Z,2.60
2022-10-19T07:55:11.369Z,1.85
2022-10-19T07:57:12.075Z,4.97
2022-10-19T07:59:11.235Z,2.25
2022-10-19T08:01:12.623Z,2.60
2022-10-19T08:05:29.282Z,3.30
2022-10-19T08:07:27.539Z,3.23
2022-10-19T08:09:51.585Z,1.33
2022-10-19T08:11:48.140Z,1.40
2022-10-19T08:13:46.597Z,1.57
2022-10-19T08:15:44.734Z,1.53
2022-10-19T08:17:43.283Z,0.83
2022-10-19T08:19:43.495Z,1.03
2022-10-19T08:21:43.714Z,2.30
2022-10-19T08:23:42.414Z,1.10
2022-10-19T08:25:40.628Z,1.10
2022-10-19T08:27:40.314Z,1.10
2022-10-19T08:29:40.015Z,0.87
2022-10-19T08:31:38.170Z,1.33
2022-10-19T08:33:36.518Z,0.60
2022-10-19T08:35:34.735Z,1.73
2022-10-19T08:37:44.363Z,0.50
2022-10-19T08:39:43.534Z,0.87
2022-10-19T08:41:56.626Z,1.40
2022-10-19T08:44:10.213Z,0.60
2022-10-19T08:46:21.906Z,0.43
2022-10-19T08:48:26.185Z,0.50
2022-10-19T08:50:28.809Z,1.00
2022-10-19T08:52:34.432Z,0.37
2022-10-19T08:54:41.901Z,0.37
2022-10-19T08:56:51.921Z,0.50
2022-10-19T08:59:05.140Z,0.30
2022-10-19T09:01:08.972Z,0.10
2022-10-19T09:03:43.859Z,0.70
2022-10-19T09:05:51.040Z,0.47
2022-10-19T09:07:55.030Z,0.40
2022-10-19T09:12:02.134Z,0.20
2022-10-19T09:14:12.858Z,0.37
2022-10-19T09:16:15.425Z,0.50
2022-10-19T09:18:19.178Z,0.43
2022-10-19T09:22:22.063Z,0.10
2022-10-19T09:24:30.936Z,0.63
2022-10-19T09:26:34.471Z,0.30
2022-10-19T09:30:46.094Z,0.07
2022-10-19T09:32:44.940Z,0.10
2022-10-19T09:34:48.022Z,0.30
2022-10-19T09:36:51.793Z,0.55
2022-10-19T09:38:51.089Z,0.08
2022-10-19T09:40:50.032Z,0.50
2022-10-19T09:42:53.261Z,0.55
2022-10-19T09:44:53.445Z,0.00
2022-10-19T09:46:59.298Z,0.57
2022-10-19T09:49:01.567Z,2.50
2022-10-19T09:51:02.169Z,0.98
2022-10-19T09:53:02.081Z,0.22
2022-10-19T09:55:06.048Z,0.55
2022-10-19T09:57:05.543Z,0.03
2022-10-19T09:59:03.963Z,0.70
2022-10-19T10:01:03.940Z,0.20
2022-10-19T10:03:03.792Z,0.57
2022-10-19T10:05:14.477Z,0.13
2022-10-19T10:07:20.414Z,0.20
2022-10-19T10:09:20.801Z,0.00
2022-10-19T10:11:26.254Z,0.00
2022-10-19T10:13:28.220Z,0.08
2022-10-19T10:15:28.955Z,0.30
2022-10-19T10:17:31.568Z,0.20
2022-10-19T10:19:32.822Z,0.00
2022-10-19T10:21:34.877Z,0.15
2022-10-19T10:23:36.548Z,0.00
2022-10-19T10:25:36.876Z,0.40
2022-10-19T10:27:37.867Z,0.68
2022-10-19T10:29:39.153Z,0.10
2022-10-19T10:31:37.358Z,0.38
2022-10-19T10:33:46.430Z,0.28
2022-10-19T10:35:53.791Z,0.13
2022-10-19T10:37:53.156Z,0.38
2022-10-19T10:39:53.946Z,0.05
2022-10-19T10:41:52.554Z,0.20
2022-10-19T10:43:57.587Z,0.10
2022-10-19T10:46:03.050Z,0.10
2022-10-19T10:48:15.965Z,0.00
2022-10-19T10:50:21.470Z,0.20
2022-10-19T10:52:21.362Z,0.00
2022-10-19T10:54:21.947Z,0.07
2022-10-19T10:56:28.351Z,0.20
2022-10-19T10:58:36.745Z,0.00
2022-10-19T11:00:38.890Z,0.37
2022-10-19T11:02:43.002Z,0.20
2022-10-19T11:04:48.633Z,0.30
2022-10-19T11:06:56.282Z,0.10
2022-10-19T11:09:05.345Z,0.20
2022-10-19T11:11:15.523Z,0.07
2022-10-19T11:13:19.225Z,0.00
2022-10-19T11:15:26.228Z,0.00
2022-10-19T11:17:28.919Z,0.30
2022-10-19T11:19:30.655Z,0.67
2022-10-19T11:21:33.250Z,0.20
2022-10-19T11:23:45.162Z,0.10
2022-10-19T11:25:56.741Z,0.00
2022-10-19T11:28:09.542Z,0.37
2022-10-19T11:30:14.594Z,0.10
2022-10-19T11:32:21.989Z,0.10
2022-10-19T11:34:39.257Z,0.03
2022-10-19T11:36:47.051Z,0.00
2022-10-19T11:39:01.205Z,0.10
2022-10-19T11:43:27.036Z,0.20
2022-10-19T11:45:43.721Z,0.07
2022-10-19T11:48:00.188Z,0.73
2022-10-19T11:50:11.101Z,0.00
2022-10-19T11:52:16.370Z,0.00
2022-10-19T11:54:29.190Z,0.00
2022-10-19T11:56:57.995Z,0.10
2022-10-19T11:59:03.400Z,0.40
2022-10-19T12:01:10.972Z,0.10
2022-10-19T12:03:43.951Z,0.20
2022-10-19T12:05:52.687Z,0.10
2022-10-19T12:08:07.521Z,0.10
2022-10-19T12:10:19.522Z,2.03
2022-10-19T12:12:30.952Z,0.37
2022-10-19T12:14:33.720Z,1.90
2022-10-19T12:16:39.228Z,0.20
2022-10-19T12:18:42.909Z,3.63
2022-10-19T12:20:48.127Z,0.10
2022-10-19T12:22:47.671Z,1.60
2022-10-19T12:24:46.554Z,2.40
2022-10-19T12:26:47.533Z,0.40
2022-10-19T12:28:51.862Z,1.07
2022-10-19T12:30:50.231Z,0.00
2022-10-19T12:33:03.312Z,0.77
2022-10-19T12:35:10.130Z,0.40
2022-10-19T12:37:13.920Z,0.37
2022-10-19T12:39:18.859Z,0.30
2022-10-19T12:41:26.523Z,1.10
2022-10-19T12:43:34.606Z,1.37
2022-10-19T12:45:37.219Z,5.20
2022-10-19T12:47:35.917Z,0.17
2022-10-19T12:49:52.504Z,0.00
2022-10-19T12:51:52.050Z,1.07
2022-10-19T12:53:50.563Z,5.23
2022-10-19T12:56:00.913Z,1.87
2022-10-19T12:58:05.434Z,2.60
2022-10-19T13:00:07.554Z,1.20
2022-10-19T13:02:24.733Z,0.20
2022-10-19T13:04:27.007Z,1.00
2022-10-19T13:06:35.272Z,0.87
2022-10-19T13:08:38.574Z,0.30
2022-10-19T13:10:37.119Z,0.22
2022-10-19T13:12:46.748Z,0.00
2022-10-19T13:14:48.289Z,0.30
2022-10-19T13:17:09.894Z,0.10
2022-10-19T13:19:22.459Z,0.43
2022-10-19T13:21:46.337Z,0.20
2022-10-19T13:23:45.494Z,0.00
2022-10-19T13:25:44.456Z,0.00
2022-10-19T13:27:43.150Z,0.10
2022-10-19T13:29:44.829Z,0.10
2022-10-19T13:31:43.208Z,0.10
2022-10-19T13:33:53.218Z,0.10
2022-10-19T13:36:08.036Z,0.37
2022-10-19T13:38:26.956Z,0.53
2022-10-19T13:40:25.815Z,0.10
2022-10-19T13:42:27.349Z,0.20
2022-10-19T13:44:35.618Z,0.30
2022-10-19T13:46:45.379Z,0.63
2022-10-19T13:49:15.715Z,0.00
2022-10-19T13:51:23.513Z,0.10
2022-10-19T13:53:33.098Z,0.00
2022-10-19T13:56:13.982Z,0.37
2022-10-19T13:58:47.210Z,0.40
2022-10-19T14:01:00.833Z,0.00
2022-10-19T14:03:26.766Z,1.00
2022-10-19T14:06:04.337Z,0.10
2022-10-19T14:08:16.791Z,0.10
2022-10-19T14:10:18.884Z,0.10
2022-10-19T14:12:23.866Z,0.50
2022-10-19T14:14:24.600Z,0.30
2022-10-19T14:16:23.749Z,0.30
2022-10-19T14:18:27.277Z,0.10
2022-10-19T14:20:29.978Z,0.43
2022-10-19T14:22:31.263Z,0.10
2022-10-19T14:24:34.201Z,0.00
2022-10-19T14:26:32.966Z,0.00
2022-10-19T14:28:37.889Z,0.30
2022-10-19T14:30:37.872Z,0.10
2022-10-19T14:32:36.777Z,0.00
2022-10-19T14:34:35.499Z,0.10
2022-10-19T14:36:38.555Z,0.27
2022-10-19T14:38:39.118Z,0.28
2022-10-19T14:40:42.897Z,0.10
2022-10-19T14:42:44.009Z,0.13
2022-10-19T14:44:44.201Z,0.10
2022-10-19T14:46:49.495Z,0.00
2022-10-19T14:48:49.670Z,0.43
2022-10-19T14:50:50.994Z,0.17
2022-10-19T14:52:52.625Z,0.23
2022-10-19T14:54:55.914Z,0.30
2022-10-19T14:57:00.863Z,0.47
2022-10-19T14:59:03.270Z,0.10
2022-10-19T15:01:01.559Z,0.20
2022-10-19T15:03:01.903Z,0.60
2022-10-19T15:05:01.919Z,0.27
2022-10-19T15:07:02.523Z,0.10
2022-10-19T15:09:03.354Z,0.30
2022-10-19T15:11:01.875Z,0.17
2022-10-19T15:13:09.303Z,0.60
2022-10-19T15:15:14.629Z,0.97
2022-10-19T15:17:24.539Z,0.20
2022-10-19T15:19:29.697Z,0.10
2022-10-19T15:21:30.366Z,0.27
2022-10-19T15:23:41.087Z,0.43
2022-10-19T15:25:40.419Z,0.43
2022-10-19T15:27:45.556Z,0.10
2022-10-19T15:29:56.114Z,0.90
2022-10-19T15:31:56.507Z,0.50
2022-10-19T15:33:57.124Z,0.87
2022-10-19T15:36:06.800Z,0.60
2022-10-19T15:38:10.136Z,0.57
2022-10-19T15:40:13.287Z,0.38
2022-10-19T15:42:36.937Z,0.30
2022-10-19T15:44:43.559Z,0.10
2022-10-19T15:47:23.800Z,0.70
2022-10-19T15:49:55.790Z,0.30
2022-10-19T15:51:54.040Z,0.43
2022-10-19T15:53:53.031Z,0.53
2022-10-19T15:55:51.267Z,0.60
2022-10-19T15:58:00.132Z,0.20
2022-10-19T16:00:00.118Z,0.30
2022-10-19T16:01:59.894Z,0.30
2022-10-19T16:04:04.145Z,0.45
2022-10-19T16:08:03.653Z,0.82
2022-10-19T16:10:01.936Z,2.28
2022-10-19T16:12:03.217Z,1.70
2022-10-19T16:14:01.564Z,1.88
2022-10-19T16:16:11.247Z,0.75
2022-10-19T16:18:12.677Z,0.77
2022-10-19T16:20:14.392Z,0.50
2022-10-19T16:22:17.646Z,0.65
2022-10-19T16:24:15.824Z,0.52
2022-10-19T16:26:16.523Z,0.90
2022-10-19T16:28:14.779Z,0.93
2022-10-19T16:30:14.095Z,0.55
2022-10-19T16:32:12.534Z,1.05
2022-10-19T16:34:12.232Z,1.05
2022-10-19T16:36:11.135Z,0.85
2022-10-19T16:38:09.185Z,1.48
2022-10-19T16:40:11.333Z,1.23
2022-10-19T16:42:09.657Z,0.90
2022-10-19T16:44:07.922Z,1.45
2022-10-19T16:46:06.998Z,0.77
2022-10-19T16:48:07.196Z,1.83
2022-10-19T16:50:11.557Z,0.63
2022-10-19T16:52:14.053Z,0.68
2022-10-19T16:54:13.316Z,0.50
2022-10-19T16:56:13.671Z,0.25
2022-10-19T16:58:12.121Z,1.55
2022-10-19T17:00:11.237Z,0.93
2022-10-19T17:02:10.910Z,0.32
2022-10-19T17:04:09.170Z,1.13
2022-10-19T17:06:09.920Z,0.85
2022-10-19T17:08:09.218Z,0.90
2022-10-19T17:10:08.339Z,0.60
2022-10-19T17:12:10.952Z,0.65
2022-10-19T17:14:11.781Z,0.70
2022-10-19T17:16:14.797Z,0.70
2022-10-19T17:18:13.222Z,1.25
2022-10-19T17:20:12.879Z,1.70
2022-10-19T17:22:12.771Z,0.95
2022-10-19T17:24:20.175Z,1.65
2022-10-19T17:26:19.931Z,0.32
2022-10-19T17:28:18.225Z,1.48
2022-10-19T17:30:16.512Z,1.63
2022-10-19T17:32:17.658Z,1.35
2022-10-19T17:34:16.680Z,0.50
2022-10-19T17:36:19.815Z,0.90
2022-10-19T17:38:19.292Z,1.42
2022-10-19T17:40:17.676Z,1.50
2022-10-19T17:42:16.100Z,0.80
2022-10-19T17:44:14.437Z,1.70
2022-10-19T17:46:24.687Z,0.60
2022-10-19T17:48:22.944Z,1.20
2022-10-19T17:50:23.896Z,1.38
2022-10-19T17:52:24.849Z,0.52
2022-10-19T17:54:36.254Z,0.93
2022-10-19T17:56:45.136Z,1.30
2022-10-19T17:58:44.668Z,0.75
2022-10-19T18:00:42.922Z,0.52
2022-10-19T18:02:41.429Z,2.33
2022-10-19T18:04:40.057Z,2.15
2022-10-19T18:06:38.983Z,1.63
2022-10-19T18:08:41.490Z,1.92
2022-10-19T18:10:41.242Z,4.68
2022-10-19T18:12:39.753Z,7.85
2022-10-19T18:14:38.081Z,0.80
2022-10-19T18:16:38.009Z,0.63
2022-10-19T18:18:38.965Z,1.85
2022-10-19T18:20:40.323Z,1.33
2022-10-19T18:22:38.497Z,2.08
2022-10-19T18:24:37.436Z,1.58
2022-10-19T18:26:37.104Z,2.55
2022-10-19T18:28:36.136Z,1.63
2022-10-19T18:30:36.897Z,0.85
2022-10-19T18:32:36.295Z,2.20
2022-10-19T18:34:35.012Z,1.63
2022-10-19T18:36:34.258Z,0.90
2022-10-19T18:38:32.592Z,1.17
2022-10-19T18:40:31.180Z,0.52
2022-10-19T18:42:30.716Z,1.48
2022-10-19T18:44:32.508Z,1.42
2022-10-19T18:46:33.371Z,1.73
2022-10-19T18:48:32.368Z,1.92
2022-10-19T18:50:31.676Z,1.40
2022-10-19T18:52:30.224Z,1.05
2022-10-19T18:54:29.011Z,0.90
2022-10-19T18:56:29.439Z,1.63
2022-10-19T18:58:31.060Z,0.82
2022-10-19T19:00:29.312Z,1.63
2022-10-19T19:02:35.255Z,1.35
2022-10-19T19:04:40.843Z,0.70
2022-10-19T19:06:40.304Z,1.20
2022-10-19T19:08:39.698Z,1.15
2022-10-19T19:10:38.178Z,1.45
2022-10-19T19:12:36.524Z,0.50
2022-10-19T19:14:36.516Z,1.05
2022-10-19T19:16:36.727Z,0.82
2022-10-19T19:18:35.826Z,0.40
2022-10-19T19:20:34.169Z,2.10
2022-10-19T19:22:32.547Z,2.13
2022-10-19T19:24:32.215Z,2.20
2022-10-19T19:26:33.793Z,2.55
2022-10-19T19:28:31.918Z,7.15
2022-10-19T19:30:31.541Z,9.52
2022-10-19T19:32:30.404Z,2.78
2022-10-19T19:34:28.613Z,1.30
2022-10-19T19:36:27.091Z,4.47
2022-10-19T19:38:25.329Z,1.65
2022-10-19T19:40:23.460Z,1.42
2022-10-19T19:42:25.644Z,0.95
2022-10-19T19:46:29.296Z,1.17
2022-10-19T19:48:27.652Z,0.90
2022-10-19T19:50:26.101Z,0.88
2022-10-19T19:52:24.302Z,1.30
2022-10-19T19:54:23.948Z,1.40
2022-10-19T19:56:22.228Z,1.25
2022-10-19T19:58:20.461Z,1.17
2022-10-19T20:00:20.209Z,1.65
2022-10-19T20:02:21.304Z,0.95
2022-10-19T20:04:19.940Z,1.63
2022-10-19T20:06:22.260Z,1.35
2022-10-19T20:08:23.491Z,1.08
2022-10-19T20:10:21.858Z,1.23
2022-10-19T20:12:20.038Z,1.15
2022-10-19T20:14:18.916Z,0.85
2022-10-19T20:16:20.261Z,0.82
2022-10-19T20:18:22.555Z,1.65
2022-10-19T20:20:21.296Z,1.55
2022-10-19T20:24:18.670Z,1.48
2022-10-19T20:26:17.647Z,2.75
2022-10-19T20:28:16.229Z,5.07
2022-10-19T20:30:14.544Z,2.53
2022-10-19T20:32:12.844Z,1.65
2022-10-19T20:34:14.109Z,1.45
2022-10-19T20:36:14.352Z,1.48
2022-10-19T20:38:12.785Z,1.10
2022-10-19T20:40:12.309Z,1.13
2022-10-19T20:42:10.774Z,1.55
2022-10-19T20:44:09.110Z,1.73
2022-10-19T20:46:08.608Z,1.98
2022-10-19T20:48:07.272Z,2.45
2022-10-19T20:50:08.218Z,2.15
2022-10-19T20:52:06.566Z,1.38
2022-10-19T20:54:07.055Z,1.88
2022-10-19T20:56:06.629Z,2.28
2022-10-19T20:58:04.658Z,1.10
2022-10-19T21:00:02.963Z,1.95
2022-10-19T21:02:01.136Z,1.20
2022-10-19T21:04:03.393Z,1.23
2022-10-19T21:06:05.865Z,1.70
2022-10-19T21:08:04.480Z,2.03
2022-10-19T21:10:02.564Z,4.10
2022-10-19T21:12:01.689Z,1.65
2022-10-19T21:14:01.436Z,0.73
2022-10-19T21:15:59.769Z,1.70
2022-10-19T21:17:57.939Z,1.13
2022-10-19T21:19:57.335Z,1.63
2022-10-19T21:22:01.689Z,1.33
2022-10-19T21:25:58.966Z,1.15
2022-10-19T21:27:57.397Z,3.00
2022-10-19T21:29:55.555Z,7.63
2022-10-19T21:31:53.953Z,4.13
2022-10-19T21:33:52.787Z,3.20
2022-10-19T21:37:55.419Z,1.33
2022-10-19T21:39:53.580Z,1.63
2022-10-19T21:41:51.994Z,2.15
2022-10-19T21:43:50.501Z,1.38
2022-10-19T21:45:48.673Z,0.95
2022-10-19T21:47:47.020Z,1.40
2022-10-19T21:49:45.260Z,1.20
2022-10-19T21:51:46.079Z,1.42
2022-10-19T21:53:46.744Z,1.90
2022-10-19T21:55:45.011Z,1.55
2022-10-19T21:57:43.142Z,2.28
2022-10-19T21:59:41.457Z,1.48
2022-10-19T22:01:41.156Z,2.05
2022-10-19T22:03:39.917Z,2.28
2022-10-19T22:05:38.162Z,1.75
2022-10-19T22:07:36.575Z,1.27
2022-10-19T22:09:36.250Z,2.15
2022-10-19T22:11:35.001Z,1.95
2022-10-19T22:13:33.296Z,1.85
2022-10-19T22:15:31.433Z,1.75
2022-10-19T22:17:29.744Z,1.45
2022-10-19T22:19:27.972Z,1.17
2022-10-19T22:21:28.018Z,2.72
2022-10-19T22:23:26.438Z,2.15
2022-10-19T22:25:26.082Z,2.08
2022-10-19T22:27:24.164Z,1.85
2022-10-19T22:29:22.501Z,2.05
2022-10-19T22:31:20.894Z,2.47
2022-10-19T22:33:19.258Z,1.95
2022-10-19T22:35:17.659Z,1.80
2022-10-19T22:37:15.848Z,1.65
2022-10-19T22:39:15.226Z,1.88
2022-10-19T22:41:14.843Z,2.25
2022-10-19T22:43:12.964Z,1.58
2022-10-19T22:45:11.073Z,2.13
2022-10-19T22:47:09.334Z,2.30
2022-10-19T22:51:10.806Z,1.92
2022-10-19T22:53:08.975Z,2.10
2022-10-19T22:55:07.802Z,2.50
2022-10-19T22:57:07.390Z,2.35
2022-10-19T22:59:07.926Z,2.95
2022-10-19T23:01:11.008Z,2.47
2022-10-19T23:03:09.550Z,2.20
2022-10-19T23:05:08.295Z,2.55
2022-10-19T23:07:06.619Z,2.72
2022-10-19T23:09:05.248Z,2.13
2022-10-19T23:11:03.607Z,2.85
2022-10-19T23:13:03.132Z,2.08
2022-10-19T23:15:01.357Z,2.28
2022-10-19T23:16:59.475Z,2.75
2022-10-19T23:18:57.851Z,3.30
2022-10-19T23:20:56.836Z,2.65
2022-10-19T23:22:55.005Z,2.78
2022-10-19T23:24:53.517Z,2.80
2022-10-19T23:26:53.694Z,2.65
2022-10-19T23:28:53.454Z,3.50
2022-10-19T23:30:51.681Z,2.85
2022-10-19T23:32:49.975Z,3.28
2022-10-19T23:34:48.718Z,2.45
2022-10-19T23:36:47.020Z,2.17
2022-10-19T23:38:48.140Z,2.90
2022-10-19T23:40:46.446Z,2.10
2022-10-19T23:42:45.359Z,2.65
2022-10-19T23:44:45.137Z,3.33
2022-10-19T23:46:43.346Z,2.88
2022-10-19T23:48:42.290Z,2.83
2022-10-19T23:50:40.505Z,2.78
2022-10-19T23:52:38.877Z,3.45
2022-10-19T23:54:37.332Z,2.88
2022-10-19T23:56:35.655Z,3.75
2022-10-19T23:58:34.651Z,2.92
